Aberdeen, Idaho
Current Conditions -  °F | °C
As of 2:53 AM on Sunday 21 Dec 2014 (Local Time) from KPIH Reporting Station
Light Rain Light Rain  
Wind Chill: 29°   Ceiling: 1800
Heat Index: 38°   Visibility: 10mi
Dew Point: 36°   Wind: 17mph
Humidity: 93%   Direction: 200°SSW
Pressure: 29.89"   Gusts: NA
Location:  42.94°N, 112.84°W
Report Text: KPIH 210953Z AUTO 20015KT 10SM -RA BKN018 OVC024 03/02 A2989 RMK AO2 SLP123 P0001 T00330022
Loading
Personal Weather Stations






























Interactive Weather Map New forecast layout! Learn more

10-Day Weather Forecast

Advertisements
Track Severe Weather on mobile